KDPG/DPG METAR and TAF weather

Enter ICAO airport designator
Station Type Date Time Source
KDPG METAR 2019/07/15 19:50 UTC NOAA

KDPG 151950Z 35006KT 40SM FEW100 35/M01 A3003 RMK SLP109 T03501010


Station Type Date Time Source
KDPG Decoded METAR 2019/07/15 19:50 UTC NOAA

Dugway Proving Grounds, UT, United States (KDPG) 40-10N 112-56W 1325M
Jul 15, 2019 - 03:50 PM EDT / 2019.07.15 1950 UTC
Wind: from the N (350 degrees) at 7 MPH (6 KT):0
Visibility: 40 mile(s):0
Sky conditions: mostly clear
Temperature: 95.0 F (35.0 C)
Dew Point: 30.2 F (-1.0 C)
Relative Humidity: 10%
Pressure (altimeter): 30.03 in. Hg (1016 hPa)
ob: KDPG 151950Z 35006KT 40SM FEW100 35/M01 A3003 RMK SLP109 T03501010
cycle: 20

Station Type Date Time Source
KDPG TAF UTC NOAA

Error!

Example: see airport list